sensor_id;sensor_type;location;lat;lon;timestamp;pressure;altitude;pressure_sealevel;temperature;humidity
64460;BME280;50828;53.756;21.140;2024-02-15T00:03:54;100355.23;;;5.18;67.42
64460;BME280;50828;53.756;21.140;2024-02-15T00:09:01;100355.79;;;5.17;67.17
64460;BME280;50828;53.756;21.140;2024-02-15T00:14:07;100351.43;;;5.16;67.23
64460;BME280;50828;53.756;21.140;2024-02-15T00:19:14;100351.95;;;5.16;66.90
64460;BME280;50828;53.756;21.140;2024-02-15T00:24:22;100355.29;;;5.15;67.10
64460;BME280;50828;53.756;21.140;2024-02-15T00:29:28;100349.88;;;5.15;67.12
64460;BME280;50828;53.756;21.140;2024-02-15T00:34:34;100344.98;;;5.15;66.92
64460;BME280;50828;53.756;21.140;2024-02-15T00:39:39;100346.22;;;5.13;66.78
64460;BME280;50828;53.756;21.140;2024-02-15T00:44:46;100342.93;;;5.12;66.89
64460;BME280;50828;53.756;21.140;2024-02-15T00:49:52;100347.48;;;5.11;66.74
64460;BME280;50828;53.756;21.140;2024-02-15T00:54:58;100350.64;;;5.10;66.71
64460;BME280;50828;53.756;21.140;2024-02-15T01:00:05;100348.36;;;5.10;66.73
64460;BME280;50828;53.756;21.140;2024-02-15T01:05:13;100349.42;;;5.09;66.75
64460;BME280;50828;53.756;21.140;2024-02-15T01:10:19;100341.45;;;5.06;66.56
64460;BME280;50828;53.756;21.140;2024-02-15T01:15:26;100337.25;;;5.06;66.55
64460;BME280;50828;53.756;21.140;2024-02-15T01:20:32;100334.30;;;5.05;66.64
64460;BME280;50828;53.756;21.140;2024-02-15T01:25:38;100332.91;;;5.05;66.40
64460;BME280;50828;53.756;21.140;2024-02-15T01:30:43;100331.36;;;5.04;66.50
64460;BME280;50828;53.756;21.140;2024-02-15T01:35:49;100325.61;;;5.02;66.56
64460;BME280;50828;53.756;21.140;2024-02-15T01:40:55;100321.96;;;5.02;66.43
64460;BME280;50828;53.756;21.140;2024-02-15T01:46:02;100317.27;;;5.00;66.46
64460;BME280;50828;53.756;21.140;2024-02-15T01:51:13;100319.54;;;5.00;66.45
64460;BME280;50828;53.756;21.140;2024-02-15T01:56:20;100318.35;;;4.99;66.46
64460;BME280;50828;53.756;21.140;2024-02-15T02:01:27;100314.84;;;4.98;66.49
64460;BME280;50828;53.756;21.140;2024-02-15T02:06:35;100312.08;;;4.97;66.36
64460;BME280;50828;53.756;21.140;2024-02-15T02:11:42;100311.21;;;4.96;66.20
64460;BME280;50828;53.756;21.140;2024-02-15T02:16:50;100304.77;;;4.95;66.52
64460;BME280;50828;53.756;21.140;2024-02-15T02:21:56;100300.76;;;4.94;66.20
64460;BME280;50828;53.756;21.140;2024-02-15T02:27:02;100299.04;;;4.93;66.37
64460;BME280;50828;53.756;21.140;2024-02-15T02:32:08;100293.30;;;4.91;66.24
64460;BME280;50828;53.756;21.140;2024-02-15T02:37:15;100295.23;;;4.90;65.93
64460;BME280;50828;53.756;21.140;2024-02-15T02:42:21;100293.34;;;4.88;66.24
64460;BME280;50828;53.756;21.140;2024-02-15T02:47:27;100288.64;;;4.87;65.99
64460;BME280;50828;53.756;21.140;2024-02-15T02:52:33;100292.13;;;4.88;66.05
64460;BME280;50828;53.756;21.140;2024-02-15T02:57:43;100294.92;;;4.88;66.18
64460;BME280;50828;53.756;21.140;2024-02-15T03:02:49;100294.94;;;4.87;66.15
64460;BME280;50828;53.756;21.140;2024-02-15T03:07:55;100295.80;;;4.87;65.88
64460;BME280;50828;53.756;21.140;2024-02-15T03:13:01;100294.44;;;4.84;65.97
64460;BME280;50828;53.756;21.140;2024-02-15T03:18:08;100294.27;;;4.84;66.07
64460;BME280;50828;53.756;21.140;2024-02-15T03:23:15;100296.91;;;4.82;65.75
64460;BME280;50828;53.756;21.140;2024-02-15T03:28:21;100307.23;;;4.81;65.73
64460;BME280;50828;53.756;21.140;2024-02-15T03:33:27;100311.58;;;4.81;65.85
64460;BME280;50828;53.756;21.140;2024-02-15T03:38:38;100306.70;;;4.82;66.09
64460;BME280;50828;53.756;21.140;2024-02-15T03:43:45;100311.94;;;4.82;65.84
64460;BME280;50828;53.756;21.140;2024-02-15T03:48:51;100314.73;;;4.81;65.92
64460;BME280;50828;53.756;21.140;2024-02-15T03:53:57;100315.42;;;4.81;65.98
64460;BME280;50828;53.756;21.140;2024-02-15T03:59:03;100313.19;;;4.81;66.03
64460;BME280;50828;53.756;21.140;2024-02-15T04:04:11;100307.42;;;4.80;66.05
64460;BME280;50828;53.756;21.140;2024-02-15T04:09:17;100305.86;;;4.79;65.96
64460;BME280;50828;53.756;21.140;2024-02-15T04:14:24;100299.74;;;4.80;65.88
64460;BME280;50828;53.756;21.140;2024-02-15T04:19:30;100295.05;;;4.78;65.88
64460;BME280;50828;53.756;21.140;2024-02-15T04:24:36;100298.38;;;4.77;65.92
64460;BME280;50828;53.756;21.140;2024-02-15T04:29:43;100300.29;;;4.78;66.08
64460;BME280;50828;53.756;21.140;2024-02-15T04:34:50;100302.05;;;4.76;65.90
64460;BME280;50828;53.756;21.140;2024-02-15T04:39:56;100310.61;;;4.75;66.13
64460;BME280;50828;53.756;21.140;2024-02-15T04:45:02;100303.71;;;4.69;66.11
64460;BME280;50828;53.756;21.140;2024-02-15T04:50:09;100303.39;;;4.67;66.43
64460;BME280;50828;53.756;21.140;2024-02-15T04:55:15;100299.63;;;4.62;66.22
64460;BME280;50828;53.756;21.140;2024-02-15T05:00:23;100299.09;;;4.62;66.46
64460;BME280;50828;53.756;21.140;2024-02-15T05:05:30;100295.61;;;4.62;66.47
64460;BME280;50828;53.756;21.140;2024-02-15T05:10:36;100298.72;;;4.64;66.68
64460;BME280;50828;53.756;21.140;2024-02-15T05:15:42;100293.70;;;4.62;66.62
64460;BME280;50828;53.756;21.140;2024-02-15T05:20:49;100294.96;;;4.58;66.92
64460;BME280;50828;53.756;21.140;2024-02-15T05:25:56;100293.13;;;4.53;66.89
64460;BME280;50828;53.756;21.140;2024-02-15T05:31:13;100294.40;;;4.47;67.20
64460;BME280;50828;53.756;21.140;2024-02-15T05:36:21;100301.56;;;4.46;67.35
64460;BME280;50828;53.756;21.140;2024-02-15T05:41:29;100306.66;;;4.43;67.51
64460;BME280;50828;53.756;21.140;2024-02-15T05:46:36;100300.39;;;4.43;67.56
64460;BME280;50828;53.756;21.140;2024-02-15T05:51:43;100302.48;;;4.42;67.86
64460;BME280;50828;53.756;21.140;2024-02-15T05:56:52;100305.45;;;4.42;67.95
64460;BME280;50828;53.756;21.140;2024-02-15T06:01:59;100309.98;;;4.43;67.95
64460;BME280;50828;53.756;21.140;2024-02-15T06:07:07;100316.59;;;4.45;67.91
64460;BME280;50828;53.756;21.140;2024-02-15T06:12:14;100322.88;;;4.45;67.97
64460;BME280;50828;53.756;21.140;2024-02-15T06:17:20;100321.99;;;4.44;67.97
64460;BME280;50828;53.756;21.140;2024-02-15T06:22:26;100319.90;;;4.44;67.88
64460;BME280;50828;53.756;21.140;2024-02-15T06:27:32;100314.16;;;4.43;68.04
64460;BME280;50828;53.756;21.140;2024-02-15T06:32:41;100318.69;;;4.44;68.11
64460;BME280;50828;53.756;21.140;2024-02-15T06:38:09;100322.33;;;4.45;68.03
64460;BME280;50828;53.756;21.140;2024-02-15T06:43:38;100326.84;;;4.47;68.05
64460;BME280;50828;53.756;21.140;2024-02-15T06:48:45;100333.63;;;4.48;68.09
64460;BME280;50828;53.756;21.140;2024-02-15T06:53:51;100323.52;;;4.48;67.93
64460;BME280;50828;53.756;21.140;2024-02-15T06:59:00;100326.98;;;4.50;67.99
64460;BME280;50828;53.756;21.140;2024-02-15T07:04:06;100326.11;;;4.50;67.98
64460;BME280;50828;53.756;21.140;2024-02-15T07:09:12;100326.45;;;4.50;68.06
64460;BME280;50828;53.756;21.140;2024-02-15T07:14:19;100329.05;;;4.52;67.85
64460;BME280;50828;53.756;21.140;2024-02-15T07:19:25;100334.96;;;4.53;67.88
64460;BME280;50828;53.756;21.140;2024-02-15T07:24:31;100338.63;;;4.53;67.95
64460;BME280;50828;53.756;21.140;2024-02-15T07:29:37;100329.54;;;4.54;68.04
64460;BME280;50828;53.756;21.140;2024-02-15T07:34:45;100328.98;;;4.58;68.07
64460;BME280;50828;53.756;21.140;2024-02-15T07:39:52;100333.48;;;4.61;68.14
64460;BME280;50828;53.756;21.140;2024-02-15T07:44:57;100338.73;;;4.59;68.07
64460;BME280;50828;53.756;21.140;2024-02-15T07:50:04;100337.48;;;4.62;68.29
64460;BME280;50828;53.756;21.140;2024-02-15T07:55:14;100337.08;;;4.65;68.21
64460;BME280;50828;53.756;21.140;2024-02-15T08:00:20;100333.38;;;4.70;68.35
64460;BME280;50828;53.756;21.140;2024-02-15T08:05:26;100331.39;;;4.75;68.31
64460;BME280;50828;53.756;21.140;2024-02-15T08:10:32;100332.02;;;4.79;68.41
64460;BME280;50828;53.756;21.140;2024-02-15T08:15:38;100332.67;;;4.83;68.41
64460;BME280;50828;53.756;21.140;2024-02-15T08:20:44;100329.51;;;4.85;68.44
64460;BME280;50828;53.756;21.140;2024-02-15T08:25:50;100331.57;;;4.88;68.51
64460;BME280;50828;53.756;21.140;2024-02-15T08:30:58;100338.52;;;4.90;68.53
64460;BME280;50828;53.756;21.140;2024-02-15T08:36:09;100331.88;;;4.90;68.70
64460;BME280;50828;53.756;21.140;2024-02-15T08:41:15;100330.78;;;4.94;68.73
64460;BME280;50828;53.756;21.140;2024-02-15T08:46:22;100333.18;;;4.98;68.88
64460;BME280;50828;53.756;21.140;2024-02-15T08:51:28;100332.26;;;5.01;69.24
64460;BME280;50828;53.756;21.140;2024-02-15T08:56:37;100330.32;;;5.03;69.33
64460;BME280;50828;53.756;21.140;2024-02-15T09:01:42;100340.90;;;5.08;69.32
64460;BME280;50828;53.756;21.140;2024-02-15T09:06:50;100342.25;;;5.10;69.33
64460;BME280;50828;53.756;21.140;2024-02-15T09:11:56;100339.27;;;5.12;69.64
64460;BME280;50828;53.756;21.140;2024-02-15T09:17:02;100341.48;;;5.15;69.77
64460;BME280;50828;53.756;21.140;2024-02-15T09:22:11;100345.98;;;5.19;69.56
64460;BME280;50828;53.756;21.140;2024-02-15T09:27:17;100347.70;;;5.20;70.02
64460;BME280;50828;53.756;21.140;2024-02-15T09:32:23;100351.50;;;5.23;70.10
64460;BME280;50828;53.756;21.140;2024-02-15T09:37:29;100355.85;;;5.24;70.20
64460;BME280;50828;53.756;21.140;2024-02-15T09:42:37;100365.05;;;5.28;70.16
64460;BME280;50828;53.756;21.140;2024-02-15T09:47:44;100371.51;;;5.29;70.57
64460;BME280;50828;53.756;21.140;2024-02-15T09:52:50;100370.61;;;5.30;70.65
64460;BME280;50828;53.756;21.140;2024-02-15T09:57:56;100372.69;;;5.31;70.71
64460;BME280;50828;53.756;21.140;2024-02-15T10:03:02;100369.72;;;5.31;70.91
64460;BME280;50828;53.756;21.140;2024-02-15T10:08:11;100368.00;;;5.29;70.98
64460;BME280;50828;53.756;21.140;2024-02-15T10:13:18;100349.98;;;5.18;70.94
64460;BME280;50828;53.756;21.140;2024-02-15T10:18:28;100366.94;;;5.29;71.14
64460;BME280;50828;53.756;21.140;2024-02-15T10:23:34;100367.46;;;5.30;71.28
64460;BME280;50828;53.756;21.140;2024-02-15T10:28:40;100364.15;;;5.30;71.35
64460;BME280;50828;53.756;21.140;2024-02-15T10:33:46;100351.96;;;5.27;71.55
64460;BME280;50828;53.756;21.140;2024-02-15T10:38:52;100353.98;;;5.31;71.71
64460;BME280;50828;53.756;21.140;2024-02-15T10:43:58;100350.66;;;5.33;71.68
64460;BME280;50828;53.756;21.140;2024-02-15T10:49:04;100343.63;;;5.35;71.83
64460;BME280;50828;53.756;21.140;2024-02-15T10:54:11;100347.75;;;5.41;72.05
64460;BME280;50828;53.756;21.140;2024-02-15T10:59:18;100343.55;;;5.42;71.95
64460;BME280;50828;53.756;21.140;2024-02-15T11:04:27;100334.96;;;5.44;72.14
64460;BME280;50828;53.756;21.140;2024-02-15T11:09:37;100333.16;;;5.46;72.26
64460;BME280;50828;53.756;21.140;2024-02-15T11:14:45;100337.85;;;5.48;72.35
64460;BME280;50828;53.756;21.140;2024-02-15T11:19:51;100338.67;;;5.51;72.38
64460;BME280;50828;53.756;21.140;2024-02-15T11:24:57;100340.75;;;5.54;72.50
64460;BME280;50828;53.756;21.140;2024-02-15T11:30:07;100342.98;;;5.55;72.53
64460;BME280;50828;53.756;21.140;2024-02-15T11:35:17;100343.97;;;5.59;72.72
64460;BME280;50828;53.756;21.140;2024-02-15T11:40:25;100340.41;;;5.63;72.75
64460;BME280;50828;53.756;21.140;2024-02-15T11:45:33;100340.02;;;5.65;72.88
64460;BME280;50828;53.756;21.140;2024-02-15T11:50:43;100333.88;;;5.67;72.79
64460;BME280;50828;53.756;21.140;2024-02-15T11:55:49;100333.82;;;5.70;73.04
64460;BME280;50828;53.756;21.140;2024-02-15T12:00:55;100331.50;;;5.73;72.89
64460;BME280;50828;53.756;21.140;2024-02-15T12:06:21;100329.42;;;5.73;72.98
64460;BME280;50828;53.756;21.140;2024-02-15T12:11:44;100330.61;;;5.74;73.05
64460;BME280;50828;53.756;21.140;2024-02-15T12:17:07;100327.61;;;5.76;73.03
64460;BME280;50828;53.756;21.140;2024-02-15T12:22:32;100319.55;;;5.78;73.12
64460;BME280;50828;53.756;21.140;2024-02-15T12:27:39;100315.51;;;5.79;73.25
64460;BME280;50828;53.756;21.140;2024-02-15T12:32:46;100311.12;;;5.80;73.40
64460;BME280;50828;53.756;21.140;2024-02-15T12:38:03;100311.58;;;5.84;73.48
64460;BME280;50828;53.756;21.140;2024-02-15T12:43:21;100307.16;;;5.87;73.37
64460;BME280;50828;53.756;21.140;2024-02-15T12:48:27;100306.97;;;5.87;73.48
64460;BME280;50828;53.756;21.140;2024-02-15T12:53:33;100299.79;;;5.88;73.60
64460;BME280;50828;53.756;21.140;2024-02-15T12:58:40;100293.63;;;5.91;73.57
64460;BME280;50828;53.756;21.140;2024-02-15T13:03:54;100296.00;;;5.96;73.61
64460;BME280;50828;53.756;21.140;2024-02-15T13:09:00;100298.24;;;5.98;73.51
64460;BME280;50828;53.756;21.140;2024-02-15T13:14:08;100298.71;;;6.01;73.86
64460;BME280;50828;53.756;21.140;2024-02-15T13:19:14;100300.60;;;6.03;73.76
64460;BME280;50828;53.756;21.140;2024-02-15T13:24:20;100300.56;;;6.05;73.74
64460;BME280;50828;53.756;21.140;2024-02-15T13:29:30;100298.37;;;6.10;73.98
64460;BME280;50828;53.756;21.140;2024-02-15T13:34:37;100295.91;;;6.11;73.75
64460;BME280;50828;53.756;21.140;2024-02-15T13:39:44;100296.89;;;6.14;73.83
64460;BME280;50828;53.756;21.140;2024-02-15T13:44:50;100302.64;;;6.16;73.81
64460;BME280;50828;53.756;21.140;2024-02-15T13:49:56;100300.14;;;6.18;73.95
64460;BME280;50828;53.756;21.140;2024-02-15T13:55:02;100295.60;;;6.19;73.89
64460;BME280;50828;53.756;21.140;2024-02-15T14:00:09;100299.91;;;6.21;74.12
64460;BME280;50828;53.756;21.140;2024-02-15T14:05:26;100299.20;;;6.21;73.85
64460;BME280;50828;53.756;21.140;2024-02-15T14:10:33;100302.85;;;6.23;73.90
64460;BME280;50828;53.756;21.140;2024-02-15T14:15:40;100311.93;;;6.23;74.16
64460;BME280;50828;53.756;21.140;2024-02-15T14:20:47;100310.57;;;6.22;73.94
64460;BME280;50828;53.756;21.140;2024-02-15T14:25:55;100315.12;;;6.21;74.10
64460;BME280;50828;53.756;21.140;2024-02-15T14:31:04;100315.98;;;6.21;74.16
64460;BME280;50828;53.756;21.140;2024-02-15T14:36:27;100314.79;;;6.20;74.39
64460;BME280;50828;53.756;21.140;2024-02-15T14:41:33;100309.86;;;6.22;74.22
64460;BME280;50828;53.756;21.140;2024-02-15T14:46:44;100315.16;;;6.28;74.14
64460;BME280;50828;53.756;21.140;2024-02-15T14:51:50;100309.31;;;6.33;74.16
64460;BME280;50828;53.756;21.140;2024-02-15T14:56:56;100309.81;;;6.34;74.17
64460;BME280;50828;53.756;21.140;2024-02-15T15:02:02;100308.09;;;6.33;74.30
64460;BME280;50828;53.756;21.140;2024-02-15T15:07:15;100313.29;;;6.35;74.15
64460;BME280;50828;53.756;21.140;2024-02-15T15:12:38;100315.55;;;6.35;74.36
64460;BME280;50828;53.756;21.140;2024-02-15T15:17:45;100318.35;;;6.35;74.36
64460;BME280;50828;53.756;21.140;2024-02-15T15:22:51;100322.36;;;6.36;74.41
64460;BME280;50828;53.756;21.140;2024-02-15T15:28:00;100319.88;;;6.37;74.52
64460;BME280;50828;53.756;21.140;2024-02-15T15:33:07;100320.05;;;6.38;74.37
64460;BME280;50828;53.756;21.140;2024-02-15T15:38:13;100316.95;;;6.35;74.42
64460;BME280;50828;53.756;21.140;2024-02-15T15:43:19;100320.92;;;6.38;74.72
64460;BME280;50828;53.756;21.140;2024-02-15T15:48:25;100322.11;;;6.39;74.76
64460;BME280;50828;53.756;21.140;2024-02-15T15:53:31;100325.74;;;6.42;74.64
64460;BME280;50828;53.756;21.140;2024-02-15T15:58:38;100328.36;;;6.42;74.57
64460;BME280;50828;53.756;21.140;2024-02-15T16:03:45;100335.64;;;6.46;74.65
64460;BME280;50828;53.756;21.140;2024-02-15T16:08:52;100339.95;;;6.49;74.69
64460;BME280;50828;53.756;21.140;2024-02-15T16:13:58;100340.85;;;6.48;74.74
64460;BME280;50828;53.756;21.140;2024-02-15T16:19:04;100339.20;;;6.52;74.62
64460;BME280;50828;53.756;21.140;2024-02-15T16:24:10;100343.04;;;6.52;74.87
64460;BME280;50828;53.756;21.140;2024-02-15T16:29:16;100342.66;;;6.53;74.66
64460;BME280;50828;53.756;21.140;2024-02-15T16:34:22;100347.04;;;6.53;74.90
64460;BME280;50828;53.756;21.140;2024-02-15T16:39:28;100354.33;;;6.56;74.93
64460;BME280;50828;53.756;21.140;2024-02-15T16:44:34;100353.27;;;6.56;74.94
64460;BME280;50828;53.756;21.140;2024-02-15T16:49:41;100354.84;;;6.57;74.95
64460;BME280;50828;53.756;21.140;2024-02-15T16:54:48;100361.98;;;6.59;75.10
64460;BME280;50828;53.756;21.140;2024-02-15T16:59:53;100366.84;;;6.61;74.99
64460;BME280;50828;53.756;21.140;2024-02-15T17:04:59;100366.33;;;6.61;75.15
64460;BME280;50828;53.756;21.140;2024-02-15T17:10:08;100368.73;;;6.63;75.08
64460;BME280;50828;53.756;21.140;2024-02-15T17:15:14;100371.52;;;6.63;75.08
64460;BME280;50828;53.756;21.140;2024-02-15T17:20:20;100380.05;;;6.65;75.18
64460;BME280;50828;53.756;21.140;2024-02-15T17:25:27;100379.15;;;6.67;75.29
64460;BME280;50828;53.756;21.140;2024-02-15T17:30:33;100381.52;;;6.70;75.10
64460;BME280;50828;53.756;21.140;2024-02-15T17:35:39;100374.66;;;6.72;75.28
64460;BME280;50828;53.756;21.140;2024-02-15T17:40:45;100374.80;;;6.74;75.16
64460;BME280;50828;53.756;21.140;2024-02-15T17:45:52;100378.45;;;6.76;75.33
64460;BME280;50828;53.756;21.140;2024-02-15T17:50:58;100383.67;;;6.77;75.18
64460;BME280;50828;53.756;21.140;2024-02-15T17:56:04;100378.69;;;6.81;75.30
64460;BME280;50828;53.756;21.140;2024-02-15T18:01:11;100377.25;;;6.83;75.42
64460;BME280;50828;53.756;21.140;2024-02-15T18:06:17;100374.59;;;6.85;75.34
64460;BME280;50828;53.756;21.140;2024-02-15T18:11:23;100373.33;;;6.87;75.33
64460;BME280;50828;53.756;21.140;2024-02-15T18:16:29;100367.84;;;6.89;75.40
64460;BME280;50828;53.756;21.140;2024-02-15T18:21:35;100364.67;;;6.90;75.62
64460;BME280;50828;53.756;21.140;2024-02-15T18:26:41;100363.58;;;6.92;75.61
64460;BME280;50828;53.756;21.140;2024-02-15T18:31:47;100366.19;;;6.92;75.56
64460;BME280;50828;53.756;21.140;2024-02-15T18:36:53;100365.96;;;6.95;75.42
64460;BME280;50828;53.756;21.140;2024-02-15T18:41:59;100365.76;;;6.97;75.68
64460;BME280;50828;53.756;21.140;2024-02-15T18:47:10;100363.80;;;6.98;75.80
64460;BME280;50828;53.756;21.140;2024-02-15T18:52:16;100355.73;;;6.98;75.62
64460;BME280;50828;53.756;21.140;2024-02-15T18:57:21;100361.80;;;7.01;75.77
64460;BME280;50828;53.756;21.140;2024-02-15T19:02:27;100369.13;;;7.03;75.64
64460;BME280;50828;53.756;21.140;2024-02-15T19:07:33;100367.73;;;7.03;75.69
64460;BME280;50828;53.756;21.140;2024-02-15T19:12:39;100368.77;;;7.03;75.56
64460;BME280;50828;53.756;21.140;2024-02-15T19:17:45;100376.53;;;7.09;75.90
64460;BME280;50828;53.756;21.140;2024-02-15T19:22:51;100373.70;;;7.10;75.76
64460;BME280;50828;53.756;21.140;2024-02-15T19:27:58;100372.45;;;7.10;75.89
64460;BME280;50828;53.756;21.140;2024-02-15T19:33:09;100371.52;;;7.14;75.85
64460;BME280;50828;53.756;21.140;2024-02-15T19:38:15;100370.64;;;7.14;75.76
64460;BME280;50828;53.756;21.140;2024-02-15T19:43:21;100373.38;;;7.17;75.82
64460;BME280;50828;53.756;21.140;2024-02-15T19:48:28;100370.20;;;7.18;75.82
64460;BME280;50828;53.756;21.140;2024-02-15T19:53:34;100367.23;;;7.18;75.67
64460;BME280;50828;53.756;21.140;2024-02-15T19:58:41;100372.62;;;7.20;75.59
64460;BME280;50828;53.756;21.140;2024-02-15T20:03:46;100367.17;;;7.20;75.80
64460;BME280;50828;53.756;21.140;2024-02-15T20:08:53;100357.90;;;7.20;75.69
64460;BME280;50828;53.756;21.140;2024-02-15T20:14:01;100363.66;;;7.21;75.77
64460;BME280;50828;53.756;21.140;2024-02-15T20:19:08;100365.05;;;7.21;75.63
64460;BME280;50828;53.756;21.140;2024-02-15T20:24:14;100364.00;;;7.21;75.63
64460;BME280;50828;53.756;21.140;2024-02-15T20:29:20;100361.73;;;7.20;75.65
64460;BME280;50828;53.756;21.140;2024-02-15T20:34:28;100365.59;;;7.21;75.56
64460;BME280;50828;53.756;21.140;2024-02-15T20:39:34;100369.64;;;7.20;75.58
64460;BME280;50828;53.756;21.140;2024-02-15T20:44:39;100368.95;;;7.20;75.64
64460;BME280;50828;53.756;21.140;2024-02-15T20:49:46;100364.91;;;7.19;75.56
64460;BME280;50828;53.756;21.140;2024-02-15T20:54:52;100359.48;;;7.20;75.39
64460;BME280;50828;53.756;21.140;2024-02-15T20:59:58;100356.86;;;7.20;75.40
64460;BME280;50828;53.756;21.140;2024-02-15T21:05:05;100363.34;;;7.19;75.30
64460;BME280;50828;53.756;21.140;2024-02-15T21:10:13;100357.58;;;7.19;75.28
64460;BME280;50828;53.756;21.140;2024-02-15T21:15:19;100357.91;;;7.19;75.13
64460;BME280;50828;53.756;21.140;2024-02-15T21:20:25;100354.06;;;7.19;75.11
64460;BME280;50828;53.756;21.140;2024-02-15T21:25:34;100356.38;;;7.17;75.21
64460;BME280;50828;53.756;21.140;2024-02-15T21:30:40;100360.89;;;7.19;75.06
64460;BME280;50828;53.756;21.140;2024-02-15T21:35:48;100362.32;;;7.18;74.98
64460;BME280;50828;53.756;21.140;2024-02-15T21:40:54;100364.09;;;7.16;75.13
64460;BME280;50828;53.756;21.140;2024-02-15T21:46:00;100370.20;;;7.18;74.86
64460;BME280;50828;53.756;21.140;2024-02-15T21:51:06;100370.02;;;7.18;75.05
64460;BME280;50828;53.756;21.140;2024-02-15T21:56:13;100363.73;;;7.17;74.99
64460;BME280;50828;53.756;21.140;2024-02-15T22:01:19;100364.11;;;7.16;74.87
64460;BME280;50828;53.756;21.140;2024-02-15T22:06:25;100360.30;;;7.14;74.95
64460;BME280;50828;53.756;21.140;2024-02-15T22:11:30;100360.14;;;7.14;74.80
64460;BME280;50828;53.756;21.140;2024-02-15T22:16:38;100352.85;;;7.11;74.75
64460;BME280;50828;53.756;21.140;2024-02-15T22:21:44;100349.52;;;7.10;74.93
64460;BME280;50828;53.756;21.140;2024-02-15T22:26:51;100347.63;;;7.09;74.72
64460;BME280;50828;53.756;21.140;2024-02-15T22:32:00;100347.86;;;7.07;74.66
64460;BME280;50828;53.756;21.140;2024-02-15T22:37:06;100351.77;;;7.04;74.82
64460;BME280;50828;53.756;21.140;2024-02-15T22:42:12;100350.94;;;7.02;74.69
64460;BME280;50828;53.756;21.140;2024-02-15T22:47:18;100349.75;;;7.00;74.66
64460;BME280;50828;53.756;21.140;2024-02-15T22:52:23;100353.68;;;6.96;74.77
64460;BME280;50828;53.756;21.140;2024-02-15T22:57:29;100354.25;;;6.94;74.60
64460;BME280;50828;53.756;21.140;2024-02-15T23:02:35;100354.13;;;6.92;74.54
64460;BME280;50828;53.756;21.140;2024-02-15T23:07:41;100355.16;;;6.92;74.79
64460;BME280;50828;53.756;21.140;2024-02-15T23:12:47;100359.70;;;6.93;74.65
64460;BME280;50828;53.756;21.140;2024-02-15T23:17:52;100360.38;;;6.94;74.80
64460;BME280;50828;53.756;21.140;2024-02-15T23:22:58;100358.61;;;6.95;74.66
64460;BME280;50828;53.756;21.140;2024-02-15T23:28:04;100360.17;;;6.95;74.79
64460;BME280;50828;53.756;21.140;2024-02-15T23:33:10;100360.83;;;6.98;74.56
64460;BME280;50828;53.756;21.140;2024-02-15T23:38:16;100361.65;;;7.00;74.61
64460;BME280;50828;53.756;21.140;2024-02-15T23:43:39;100353.93;;;7.01;74.67
64460;BME280;50828;53.756;21.140;2024-02-15T23:48:45;100346.74;;;7.02;74.79
64460;BME280;50828;53.756;21.140;2024-02-15T23:53:51;100347.96;;;7.02;74.55
64460;BME280;50828;53.756;21.140;2024-02-15T23:58:57;100347.61;;;7.02;74.56
